New Augusta, Mississippi
Current Conditions -  °F | °C
As of 4:53 PM on Thursday 20 Nov 2014 (Local Time) from KHBG Reporting Station
Clear Clear  
Wind Chill: 61°   Ceiling: Unl
Heat Index: 61°   Visibility: 10mi
Dew Point: 48°   Wind: 0mph
Humidity: 62%   Direction: NA
Pressure: 30.2"   Gusts: NA
Location:  31.2°N, 89.03°W
Report Text: KHBG 202253Z AUTO 00000KT 10SM CLR 16/09 A3020 RMK AO2 SLP227 T01610089 $
Loading
Personal Weather Stations






























Interactive Weather Map New forecast layout! Learn more

10-Day Weather Forecast

Advertisements
Track Severe Weather on mobile